createdAt,value
2019-01-29T00:01:26.966Z,0.50
2019-01-29T00:03:56.030Z,0.50
2019-01-29T00:06:25.284Z,0.40
2019-01-29T00:08:54.289Z,0.40
2019-01-29T00:11:23.373Z,0.40
2019-01-29T00:13:52.604Z,0.40
2019-01-29T00:16:21.986Z,0.40
2019-01-29T00:18:52.018Z,0.30
2019-01-29T00:21:21.335Z,0.30
2019-01-29T00:23:50.668Z,0.30
2019-01-29T00:26:21.512Z,0.20
2019-01-29T00:28:51.090Z,0.10
2019-01-29T00:31:20.828Z,0.20
2019-01-29T00:33:51.767Z,0.10
2019-01-29T00:36:21.095Z,0.10
2019-01-29T00:38:50.022Z,0.10
2019-01-29T00:41:19.030Z,0.10
2019-01-29T00:43:48.283Z,0.10
2019-01-29T00:46:17.242Z,0.00
2019-01-29T00:48:46.160Z,0.00
2019-01-29T00:51:15.163Z,-0.10
2019-01-29T00:53:44.002Z,-0.20
2019-01-29T00:56:12.906Z,-0.30
2019-01-29T00:58:42.048Z,-0.40
2019-01-29T01:01:11.499Z,-0.50
2019-01-29T01:03:40.782Z,-0.60
2019-01-29T01:06:09.982Z,-0.60
2019-01-29T01:08:39.348Z,-0.70
2019-01-29T01:11:08.171Z,-0.70
2019-01-29T01:13:36.964Z,-0.70
2019-01-29T01:16:05.925Z,-0.80
2019-01-29T01:18:34.712Z,-0.80
2019-01-29T01:21:03.561Z,-0.80
2019-01-29T01:23:32.406Z,-0.90
2019-01-29T01:26:01.259Z,-0.90
2019-01-29T01:28:30.307Z,-0.90
2019-01-29T01:30:59.148Z,-0.90
2019-01-29T01:33:28.029Z,-0.90
2019-01-29T01:35:56.910Z,-0.80
2019-01-29T01:38:25.714Z,-0.80
2019-01-29T01:40:54.587Z,-0.70
2019-01-29T01:43:23.461Z,-0.60
2019-01-29T01:45:52.402Z,-0.50
2019-01-29T01:48:21.435Z,-0.50
2019-01-29T01:50:50.226Z,-0.40
2019-01-29T01:53:19.038Z,-0.40
2019-01-29T01:55:47.905Z,-0.40
2019-01-29T01:58:17.216Z,-0.30
2019-01-29T02:00:46.093Z,-0.30
2019-01-29T02:03:15.126Z,-0.40
2019-01-29T02:05:44.040Z,-0.40
2019-01-29T02:08:12.925Z,-0.60
2019-01-29T02:10:41.818Z,-0.70
2019-01-29T02:13:11.048Z,-0.70
2019-01-29T02:15:39.980Z,-0.80
2019-01-29T02:18:08.920Z,-0.80
2019-01-29T02:20:37.769Z,-0.80
2019-01-29T02:23:08.152Z,-0.80
2019-01-29T02:25:37.413Z,-0.90
2019-01-29T02:28:06.309Z,-0.90
2019-01-29T02:30:35.274Z,-0.90
2019-01-29T02:33:04.240Z,-0.90
2019-01-29T02:35:33.205Z,-0.90
2019-01-29T02:38:02.483Z,-0.90
2019-01-29T02:40:31.549Z,-1.00
2019-01-29T02:43:00.402Z,-1.00
2019-01-29T02:45:29.270Z,-1.10
2019-01-29T02:47:58.475Z,-1.10
2019-01-29T02:50:27.493Z,-1.10
2019-01-29T02:52:56.430Z,-1.10
2019-01-29T02:55:25.425Z,-1.10
2019-01-29T02:57:54.413Z,-1.10
2019-01-29T03:00:27.140Z,-1.10
2019-01-29T03:02:56.049Z,-1.00
2019-01-29T03:05:25.057Z,-1.00
2019-01-29T03:07:54.305Z,-1.10
2019-01-29T03:10:25.176Z,-1.20
2019-01-29T03:12:54.428Z,-1.30
2019-01-29T03:15:27.737Z,-1.40
2019-01-29T03:17:56.966Z,-1.40
2019-01-29T03:20:25.946Z,-1.50
2019-01-29T03:22:54.964Z,-1.60
2019-01-29T03:25:23.940Z,-1.70
2019-01-29T03:27:55.556Z,-1.70
2019-01-29T03:30:25.063Z,-1.80
2019-01-29T03:32:54.452Z,-1.80
2019-01-29T03:35:23.679Z,-1.70
2019-01-29T03:37:54.619Z,-1.70
2019-01-29T03:40:26.431Z,-1.70
2019-01-29T03:42:55.796Z,-1.80
2019-01-29T03:45:25.607Z,-1.80
2019-01-29T03:47:54.941Z,-1.80
2019-01-29T03:51:05.636Z,-1.80
2019-01-29T03:54:18.767Z,-1.90
2019-01-29T03:58:17.000Z,-2.00
2019-01-29T04:02:58.066Z,-2.10
2019-01-29T04:03:55.131Z,-2.20
2019-01-29T04:06:24.252Z,-2.30
2019-01-29T04:08:54.201Z,-2.30
2019-01-29T04:11:23.488Z,-2.40
2019-01-29T04:13:52.991Z,-2.50
2019-01-29T04:16:22.274Z,-2.40
2019-01-29T04:18:51.818Z,-2.40
2019-01-29T04:21:21.120Z,-2.40
2019-01-29T04:23:50.435Z,-2.40
2019-01-29T04:26:19.793Z,-2.40
2019-01-29T04:28:49.831Z,-2.40
2019-01-29T04:31:19.512Z,-2.50
2019-01-29T04:33:48.777Z,-2.60
2019-01-29T04:36:18.000Z,-2.60
2019-01-29T04:38:47.329Z,-2.60
2019-01-29T04:41:16.591Z,-2.50
2019-01-29T04:43:45.912Z,-2.50
2019-01-29T04:46:15.166Z,-2.40
2019-01-29T04:48:44.741Z,-2.30
2019-01-29T04:51:13.858Z,-2.20
2019-01-29T04:53:43.098Z,-2.20
2019-01-29T04:56:11.934Z,-2.20
2019-01-29T04:58:44.070Z,-2.20
2019-01-29T05:01:15.858Z,-2.30
2019-01-29T05:03:51.361Z,-2.20
2019-01-29T05:06:21.108Z,-2.20
2019-01-29T05:08:50.090Z,-2.30
2019-01-29T05:11:19.234Z,-2.30
2019-01-29T05:13:48.112Z,-2.40
2019-01-29T05:16:17.789Z,-2.40
2019-01-29T05:18:47.067Z,-2.30
2019-01-29T05:21:16.216Z,-2.30
2019-01-29T05:23:45.378Z,-2.20
2019-01-29T05:26:14.433Z,-2.10
2019-01-29T05:28:43.464Z,-2.00
2019-01-29T05:31:12.401Z,-1.90
2019-01-29T05:33:41.728Z,-1.90
2019-01-29T05:36:10.740Z,-1.80
2019-01-29T05:38:39.605Z,-1.80
2019-01-29T05:41:08.929Z,-1.80
2019-01-29T05:43:37.725Z,-1.80
2019-01-29T05:46:06.949Z,-1.80
2019-01-29T05:48:35.825Z,-1.80
2019-01-29T05:51:04.753Z,-1.80
2019-01-29T05:53:33.546Z,-1.80
2019-01-29T05:56:02.339Z,-1.80
2019-01-29T05:58:31.189Z,-1.80
2019-01-29T06:00:59.988Z,-1.80
2019-01-29T06:03:28.916Z,-1.80
2019-01-29T06:05:57.781Z,-1.60
2019-01-29T06:08:26.801Z,-1.50
2019-01-29T06:10:55.837Z,-1.40
2019-01-29T06:13:24.880Z,-1.40
2019-01-29T06:15:53.662Z,-1.30
2019-01-29T06:18:23.030Z,-1.40
2019-01-29T06:20:52.063Z,-1.40
2019-01-29T06:23:20.919Z,-1.50
2019-01-29T06:25:49.949Z,-1.50
2019-01-29T06:28:18.728Z,-1.50
2019-01-29T06:30:48.124Z,-1.60
2019-01-29T06:33:20.815Z,-1.70
2019-01-29T06:35:49.672Z,-1.70
2019-01-29T06:38:29.037Z,-1.80
2019-01-29T06:41:06.625Z,-1.90
2019-01-29T06:43:35.427Z,-1.90
2019-01-29T06:46:04.412Z,-1.90
2019-01-29T06:48:33.257Z,-1.90
2019-01-29T06:51:02.133Z,-1.80
2019-01-29T06:53:30.929Z,-1.80
2019-01-29T06:55:59.731Z,-1.80
2019-01-29T06:58:28.542Z,-1.80
2019-01-29T07:00:59.046Z,-1.80
2019-01-29T07:03:28.173Z,-1.80
2019-01-29T07:05:57.293Z,-1.80
2019-01-29T07:08:26.364Z,-1.70
2019-01-29T07:10:55.292Z,-1.80
2019-01-29T07:13:24.153Z,-1.80
2019-01-29T07:16:18.185Z,-1.80
2019-01-29T07:19:03.629Z,-1.80
2019-01-29T07:21:32.456Z,-1.80
2019-01-29T07:24:01.433Z,-1.80
2019-01-29T07:26:30.328Z,-1.80
2019-01-29T07:28:59.474Z,-1.80
2019-01-29T07:31:28.318Z,-1.80
2019-01-29T07:33:57.175Z,-1.80
2019-01-29T07:36:26.294Z,-1.80
2019-01-29T07:38:55.345Z,-1.90
2019-01-29T07:41:24.203Z,-1.90
2019-01-29T07:43:55.268Z,-1.80
2019-01-29T07:46:24.351Z,-1.70
2019-01-29T07:48:53.161Z,-1.50
2019-01-29T07:51:23.307Z,-1.20
2019-01-29T07:53:53.218Z,-1.10
2019-01-29T07:56:22.161Z,-1.00
2019-01-29T07:58:51.083Z,-0.80
2019-01-29T08:01:20.239Z,-0.80
2019-01-29T08:03:49.429Z,-0.60
2019-01-29T08:06:18.307Z,-0.50
2019-01-29T08:08:47.287Z,-0.50
2019-01-29T08:11:16.294Z,-0.40
2019-01-29T08:13:45.115Z,-0.40
2019-01-29T08:16:15.506Z,-0.50
2019-01-29T08:18:44.632Z,-0.40
2019-01-29T08:21:13.569Z,-0.30
2019-01-29T08:23:42.665Z,-0.10
2019-01-29T08:26:11.732Z,0.00
2019-01-29T08:28:40.670Z,0.00
2019-01-29T08:31:09.533Z,0.00
2019-01-29T08:33:38.641Z,0.10
2019-01-29T08:36:08.212Z,0.20
2019-01-29T08:38:37.722Z,0.20
2019-01-29T08:41:06.664Z,0.20
2019-01-29T08:43:35.463Z,0.30
2019-01-29T08:46:04.487Z,0.20
2019-01-29T08:48:33.621Z,0.20
2019-01-29T08:51:03.820Z,0.00
2019-01-29T08:53:32.898Z,0.10
2019-01-29T08:56:01.872Z,0.10
2019-01-29T08:58:30.745Z,0.30
2019-01-29T09:01:01.093Z,0.50
2019-01-29T09:03:30.189Z,0.60
2019-01-29T09:05:59.162Z,0.80
2019-01-29T09:08:28.206Z,0.90
2019-01-29T09:10:57.344Z,0.90
2019-01-29T09:13:26.805Z,1.00
2019-01-29T09:15:56.014Z,0.70
2019-01-29T09:18:24.883Z,0.80
2019-01-29T09:20:53.841Z,0.90
2019-01-29T09:23:22.783Z,1.10
2019-01-29T09:25:53.148Z,1.20
2019-01-29T09:28:23.346Z,1.10
2019-01-29T09:30:52.185Z,1.10
2019-01-29T09:33:21.234Z,1.10
2019-01-29T09:35:50.209Z,1.10
2019-01-29T09:38:19.418Z,1.20
2019-01-29T09:40:48.358Z,1.30
2019-01-29T09:43:17.537Z,1.40
2019-01-29T09:45:46.386Z,1.70
2019-01-29T09:48:15.717Z,1.80
2019-01-29T09:50:44.610Z,1.90
2019-01-29T09:53:13.591Z,2.00
2019-01-29T09:55:42.401Z,1.90
2019-01-29T09:58:11.233Z,2.00
2019-01-29T10:00:40.272Z,2.00
2019-01-29T10:03:09.165Z,2.10
2019-01-29T10:05:38.198Z,2.20
2019-01-29T10:08:08.011Z,2.30
2019-01-29T10:10:37.132Z,2.40
2019-01-29T10:13:06.103Z,2.50
2019-01-29T10:15:35.820Z,2.50
2019-01-29T10:18:05.237Z,2.60
2019-01-29T10:20:34.535Z,2.50
2019-01-29T10:23:03.737Z,2.60
2019-01-29T10:25:37.750Z,2.70
2019-01-29T10:28:03.377Z,2.70
2019-01-29T10:30:32.364Z,2.70
2019-01-29T10:33:01.340Z,2.70
2019-01-29T10:35:30.529Z,2.70
2019-01-29T10:37:59.537Z,2.60
2019-01-29T10:40:28.804Z,2.50
2019-01-29T10:42:58.821Z,2.50
2019-01-29T10:45:29.538Z,2.40
2019-01-29T10:47:58.686Z,2.40
2019-01-29T10:50:28.516Z,2.40
2019-01-29T10:52:57.667Z,2.50
2019-01-29T10:55:26.773Z,2.40
2019-01-29T10:57:55.745Z,2.70
2019-01-29T11:00:27.725Z,2.70
2019-01-29T11:02:56.940Z,2.90
2019-01-29T11:05:26.354Z,3.00
2019-01-29T11:07:55.606Z,3.10
2019-01-29T11:10:24.965Z,3.10
2019-01-29T11:12:53.837Z,3.00
2019-01-29T11:15:32.155Z,3.00
2019-01-29T11:18:01.170Z,3.00
2019-01-29T11:20:30.151Z,2.90
2019-01-29T11:22:59.487Z,2.90
2019-01-29T11:25:29.345Z,2.80
2019-01-29T11:27:58.348Z,2.90
2019-01-29T11:30:28.682Z,3.00
2019-01-29T11:32:57.750Z,3.10
2019-01-29T11:35:26.730Z,3.00
2019-01-29T11:37:55.729Z,3.10
2019-01-29T11:40:26.291Z,3.30
2019-01-29T11:42:55.089Z,3.30
2019-01-29T11:45:27.010Z,3.30
2019-01-29T11:47:55.983Z,3.30
2019-01-29T11:50:24.962Z,3.30
2019-01-29T11:52:53.930Z,3.10
2019-01-29T11:55:23.013Z,3.20
2019-01-29T11:57:51.936Z,3.30
2019-01-29T12:00:30.130Z,3.30
2019-01-29T12:02:59.517Z,3.30
2019-01-29T12:05:28.494Z,3.20
2019-01-29T12:07:57.742Z,3.40
2019-01-29T12:10:26.772Z,3.60
2019-01-29T12:12:57.121Z,3.70
2019-01-29T12:15:26.095Z,3.80
2019-01-29T12:17:55.054Z,3.70
2019-01-29T12:20:23.949Z,3.70
2019-01-29T12:22:52.951Z,3.60
2019-01-29T12:25:21.989Z,3.70
2019-01-29T12:27:51.201Z,3.70
2019-01-29T12:30:21.070Z,3.70
2019-01-29T12:32:50.300Z,3.70
2019-01-29T12:35:20.725Z,3.70
2019-01-29T12:37:49.929Z,3.90
2019-01-29T12:40:18.841Z,4.10
2019-01-29T12:42:50.427Z,4.10
2019-01-29T12:45:20.454Z,4.10
2019-01-29T12:47:50.053Z,4.10
2019-01-29T12:50:21.346Z,4.10
2019-01-29T12:53:01.250Z,4.10
2019-01-29T12:55:30.241Z,4.20
2019-01-29T12:57:59.171Z,4.30
2019-01-29T13:00:31.455Z,4.40
2019-01-29T13:03:00.884Z,4.50
2019-01-29T13:05:29.834Z,4.60
2019-01-29T13:07:58.833Z,4.60
2019-01-29T13:10:27.885Z,4.60
2019-01-29T13:12:56.877Z,4.80
2019-01-29T13:15:27.513Z,4.90
2019-01-29T13:17:56.997Z,5.00
2019-01-29T13:20:26.182Z,4.80
2019-01-29T13:22:55.417Z,4.70
2019-01-29T13:25:24.489Z,4.60
2019-01-29T13:27:53.380Z,4.50
2019-01-29T13:30:32.989Z,4.50
2019-01-29T13:33:02.043Z,4.40
2019-01-29T13:35:32.977Z,4.40
2019-01-29T13:38:02.420Z,4.40
2019-01-29T13:40:31.628Z,4.30
2019-01-29T13:43:00.631Z,4.00
2019-01-29T13:45:29.646Z,3.80
2019-01-29T13:47:58.624Z,3.70
2019-01-29T13:50:33.648Z,3.70
2019-01-29T13:53:02.641Z,4.10
2019-01-29T13:55:31.617Z,4.50
2019-01-29T13:58:00.583Z,4.80
2019-01-29T14:00:31.482Z,5.50
2019-01-29T14:03:01.097Z,5.80
2019-01-29T14:05:30.093Z,5.70
2019-01-29T14:07:59.052Z,5.30
2019-01-29T14:10:27.998Z,5.10
2019-01-29T14:12:57.017Z,4.80
2019-01-29T14:15:30.806Z,4.50
2019-01-29T14:17:59.830Z,4.30
2019-01-29T14:20:30.133Z,4.20
2019-01-29T14:22:59.997Z,4.10
2019-01-29T14:25:29.364Z,4.00
2019-01-29T14:27:58.289Z,4.00
2019-01-29T14:30:27.292Z,3.80
2019-01-29T14:32:56.295Z,3.80
2019-01-29T14:35:25.173Z,3.70
2019-01-29T14:38:41.414Z,3.50
2019-01-29T14:41:10.229Z,3.50
2019-01-29T14:43:39.253Z,3.50
2019-01-29T14:46:08.566Z,3.50
2019-01-29T14:48:37.698Z,3.40
2019-01-29T14:51:06.672Z,3.30
2019-01-29T14:53:35.637Z,3.20
2019-01-29T14:56:04.702Z,3.20
2019-01-29T14:58:33.823Z,3.20
2019-01-29T15:01:03.710Z,3.10
2019-01-29T15:03:32.909Z,3.00
2019-01-29T15:06:01.704Z,3.10
2019-01-29T15:08:30.602Z,3.00
2019-01-29T15:10:59.705Z,2.90
2019-01-29T15:13:28.942Z,2.80
2019-01-29T15:16:04.957Z,2.80
2019-01-29T15:18:37.777Z,2.80
2019-01-29T15:21:06.654Z,2.70
2019-01-29T15:23:35.615Z,2.70
2019-01-29T15:26:04.549Z,2.80
2019-01-29T15:28:33.743Z,2.80
2019-01-29T15:31:02.989Z,2.80
2019-01-29T15:33:32.151Z,2.70
2019-01-29T15:36:01.099Z,2.70
2019-01-29T15:38:29.980Z,2.70
2019-01-29T15:40:59.087Z,2.60
2019-01-29T15:43:27.973Z,2.60
2019-01-29T15:45:56.911Z,2.60
2019-01-29T15:48:25.785Z,2.50
2019-01-29T15:50:54.724Z,2.40
2019-01-29T15:53:23.812Z,2.30
2019-01-29T15:55:52.754Z,2.20
2019-01-29T15:58:22.006Z,2.00
2019-01-29T16:00:51.058Z,1.90
2019-01-29T16:03:20.416Z,1.70
2019-01-29T16:05:50.025Z,1.40
2019-01-29T16:08:20.136Z,1.20
2019-01-29T16:10:50.137Z,1.00
2019-01-29T16:13:19.849Z,0.80
2019-01-29T16:15:49.011Z,0.60
2019-01-29T16:18:17.976Z,0.50
2019-01-29T16:20:48.389Z,0.30
2019-01-29T16:23:17.329Z,0.10
2019-01-29T16:25:46.293Z,0.00
2019-01-29T16:28:15.065Z,0.00
2019-01-29T16:30:44.201Z,0.00
2019-01-29T16:33:13.478Z,0.00
2019-01-29T16:35:42.766Z,-0.20
2019-01-29T16:38:14.069Z,-0.30
2019-01-29T16:40:43.427Z,-0.40
2019-01-29T16:43:12.565Z,-0.50
2019-01-29T16:45:41.785Z,-0.70
2019-01-29T16:48:11.463Z,-0.80
2019-01-29T16:50:40.693Z,-0.90
2019-01-29T16:53:10.130Z,-1.00
2019-01-29T16:55:39.675Z,-1.10
2019-01-29T16:58:09.465Z,-1.20
2019-01-29T17:00:39.397Z,-1.30
2019-01-29T17:03:08.329Z,-1.30
2019-01-29T17:05:37.597Z,-1.30
2019-01-29T17:08:06.699Z,-1.40
2019-01-29T17:10:35.874Z,-1.50
2019-01-29T17:13:05.959Z,-1.60
2019-01-29T17:15:36.756Z,-1.60
2019-01-29T17:18:06.759Z,-1.70
2019-01-29T17:20:38.353Z,-1.70
2019-01-29T17:23:09.291Z,-1.70
2019-01-29T17:25:39.112Z,-1.80
2019-01-29T17:28:09.169Z,-1.80
2019-01-29T17:30:40.808Z,-1.80
2019-01-29T17:33:11.237Z,-1.90
2019-01-29T17:35:42.604Z,-1.90
2019-01-29T17:38:12.678Z,-2.00
2019-01-29T17:40:42.368Z,-2.00
2019-01-29T17:43:12.049Z,-2.00
2019-01-29T17:45:43.966Z,-2.10
2019-01-29T17:48:14.034Z,-2.10
2019-01-29T17:50:44.929Z,-2.10
2019-01-29T17:53:14.624Z,-2.20
2019-01-29T17:55:44.890Z,-2.20
2019-01-29T17:58:15.429Z,-2.20
2019-01-29T18:00:49.910Z,-2.20
2019-01-29T18:03:19.608Z,-2.30
2019-01-29T18:05:49.034Z,-2.30
2019-01-29T18:08:18.786Z,-2.40
2019-01-29T18:10:49.201Z,-2.40
2019-01-29T18:13:18.930Z,-2.40
2019-01-29T18:15:48.729Z,-2.40
2019-01-29T18:18:18.956Z,-2.50
2019-01-29T18:20:48.960Z,-2.50
2019-01-29T18:23:18.794Z,-2.50
2019-01-29T18:25:48.458Z,-2.60
2019-01-29T18:28:17.905Z,-2.60
2019-01-29T18:30:47.450Z,-2.70
2019-01-29T18:33:16.876Z,-2.70
2019-01-29T18:35:46.416Z,-2.80
2019-01-29T18:38:16.212Z,-2.80
2019-01-29T18:40:54.620Z,-2.80
2019-01-29T18:43:24.236Z,-2.80
2019-01-29T18:45:55.563Z,-2.90
2019-01-29T18:48:26.140Z,-2.90
2019-01-29T18:50:56.346Z,-2.80
2019-01-29T18:53:28.665Z,-2.90
2019-01-29T18:55:58.719Z,-3.00
2019-01-29T18:58:46.699Z,-3.10
2019-01-29T19:01:17.137Z,-3.10
2019-01-29T19:03:49.917Z,-3.10
2019-01-29T19:06:19.318Z,-3.10
2019-01-29T19:08:57.827Z,-3.20
2019-01-29T19:11:27.814Z,-3.20
2019-01-29T19:15:03.756Z,-3.20
2019-01-29T19:17:02.991Z,-3.30
2019-01-29T19:19:36.433Z,-3.30
2019-01-29T19:22:06.809Z,-3.40
2019-01-29T19:24:36.797Z,-3.40
2019-01-29T19:27:07.804Z,-3.40
2019-01-29T19:29:37.707Z,-3.40
2019-01-29T19:32:08.595Z,-3.40
2019-01-29T19:34:39.917Z,-3.40
2019-01-29T19:37:11.429Z,-3.50
2019-01-29T19:39:42.510Z,-3.60
2019-01-29T19:42:32.825Z,-3.70
2019-01-29T19:45:04.614Z,-3.70
2019-01-29T19:47:35.513Z,-3.80
2019-01-29T19:50:08.757Z,-3.80
2019-01-29T19:52:41.740Z,-3.80
2019-01-29T19:55:12.279Z,-3.90
2019-01-29T19:57:42.974Z,-3.90
2019-01-29T20:00:17.797Z,-3.90
2019-01-29T20:02:51.442Z,-4.00
2019-01-29T20:05:22.825Z,-3.90
2019-01-29T20:07:53.966Z,-3.90
2019-01-29T20:10:28.121Z,-3.90
2019-01-29T20:12:59.781Z,-3.90
2019-01-29T20:15:31.094Z,-3.90
2019-01-29T20:18:02.143Z,-3.90
2019-01-29T20:20:35.882Z,-3.90
2019-01-29T20:23:08.219Z,-3.90
2019-01-29T20:25:38.158Z,-3.90
2019-01-29T20:28:08.470Z,-3.90
2019-01-29T20:30:39.718Z,-3.90
2019-01-29T20:33:09.617Z,-3.90
2019-01-29T20:35:39.325Z,-3.90
2019-01-29T20:38:08.830Z,-4.00
2019-01-29T20:40:38.473Z,-4.00
2019-01-29T20:43:08.070Z,-4.00
2019-01-29T20:45:37.770Z,-4.10
2019-01-29T20:48:07.540Z,-4.10
2019-01-29T20:50:37.379Z,-4.10
2019-01-29T20:53:06.524Z,-4.20
2019-01-29T20:55:35.864Z,-4.20
2019-01-29T20:58:05.503Z,-4.30
2019-01-29T21:00:36.691Z,-4.30
2019-01-29T21:03:05.834Z,-4.30
2019-01-29T21:05:35.013Z,-4.30
2019-01-29T21:08:04.464Z,-4.30
2019-01-29T21:10:33.505Z,-4.40
2019-01-29T21:13:02.324Z,-4.40
2019-01-29T21:15:37.886Z,-4.50
2019-01-29T21:18:02.432Z,-4.50
2019-01-29T21:20:31.708Z,-4.50
2019-01-29T21:23:01.009Z,-4.50
2019-01-29T21:25:30.061Z,-4.50
2019-01-29T21:27:59.183Z,-4.60
2019-01-29T21:30:30.469Z,-4.60
2019-01-29T21:32:59.359Z,-4.60
2019-01-29T21:35:28.759Z,-4.70
2019-01-29T21:37:57.930Z,-4.70
2019-01-29T21:40:27.221Z,-4.70
2019-01-29T21:42:56.678Z,-4.70
2019-01-29T21:45:25.872Z,-4.80
2019-01-29T21:47:55.857Z,-4.80
2019-01-29T21:50:27.805Z,-4.80
2019-01-29T21:52:56.606Z,-4.80
2019-01-29T21:55:25.931Z,-4.80
2019-01-29T21:57:54.956Z,-4.80
2019-01-29T22:00:32.171Z,-4.90
2019-01-29T22:03:01.111Z,-4.80
2019-01-29T22:05:30.052Z,-4.90
2019-01-29T22:07:58.928Z,-4.90
2019-01-29T22:10:28.105Z,-4.80
2019-01-29T22:12:57.200Z,-4.90
2019-01-29T22:15:26.085Z,-4.90
2019-01-29T22:17:54.880Z,-4.90
2019-01-29T22:20:23.816Z,-4.90
2019-01-29T22:22:52.748Z,-4.90
2019-01-29T22:25:21.696Z,-4.90
2019-01-29T22:27:50.650Z,-5.00
2019-01-29T22:30:33.874Z,-5.10
2019-01-29T22:33:02.872Z,-5.20
2019-01-29T22:35:31.796Z,-5.20
2019-01-29T22:38:00.674Z,-5.30
2019-01-29T22:40:29.807Z,-5.30
2019-01-29T22:42:59.677Z,-5.30
2019-01-29T22:45:28.637Z,-5.30
2019-01-29T22:47:57.599Z,-5.20
2019-01-29T22:50:31.937Z,-5.20
2019-01-29T22:53:01.111Z,-5.20
2019-01-29T22:55:30.129Z,-5.20
2019-01-29T22:57:59.231Z,-5.20
2019-01-29T23:01:02.852Z,-5.20
2019-01-29T23:03:38.675Z,-5.10
2019-01-29T23:06:32.165Z,-5.10
2019-01-29T23:09:01.039Z,-5.10
2019-01-29T23:11:29.834Z,-5.10
2019-01-29T23:13:58.881Z,-5.20
2019-01-29T23:16:27.799Z,-5.20
2019-01-29T23:18:56.716Z,-5.20
2019-01-29T23:21:25.625Z,-5.20
2019-01-29T23:23:54.557Z,-5.20
2019-01-29T23:26:23.418Z,-5.20
2019-01-29T23:28:52.315Z,-5.20
2019-01-29T23:31:21.210Z,-5.20
2019-01-29T23:33:50.014Z,-5.20
2019-01-29T23:36:18.957Z,-5.10
2019-01-29T23:38:47.845Z,-5.10
2019-01-29T23:41:16.813Z,-5.10
2019-01-29T23:43:45.635Z,-5.00
2019-01-29T23:46:14.416Z,-5.00
2019-01-29T23:48:43.295Z,-5.00
2019-01-29T23:51:12.242Z,-5.00
2019-01-29T23:53:41.111Z,-5.00
2019-01-29T23:56:10.161Z,-5.10
2019-01-29T23:58:38.946Z,-5.10
